Hovedside
METAR-TAF:

METAR-TAF

Lufthavner :

Kuantan, Malaysia

breddegrad: 03-37N, lengdegrad: 103-13E, høyde over havet: 18 m

Gjeldene værobservasjon

Denne rapporten ble laget for 30 minutter siden, klokken 06:00 UTC
Vind 8 kt fra Øst-sørøst, skiftende mellom Nordøst og Sør-sørvest
Temperatur 32°C
Luftfuktighet 67%
Trykk 1006 hPa
Sikt 10 km eller mer
Spredte skyer i en høyde av 2000 ft

METAR: WMKD 250600Z 12008KT 050V210 9999 SCT020 32/25 Q1006 NOSIG

Tid: 14:30 (06:30 UTC)


TAF: fraværende

Værobservasjoner og værvarsel for over 4000 flyplasser (METAR- og TAF-rapporter).

Tilgjengelige stasjoner er representert av de røde og gule prikkene på kartet.

Hold musepekeren over prikken for å se navnet på stasjonen.

Klikk så for å se værobservasjoner og -varsler.

For å forandre kartet kan du klikke på den grønne knappen med svart kryss for å zoome inn, på den grønne knappen med strek for å zoome ut, eller på de grønne pilene for å se tilstøtende kart.


METAR-TAF: